createdAt,value
2018-12-31T00:00:42.996Z,6.08
2018-12-31T00:01:43.582Z,6.08
2018-12-31T00:02:44.094Z,6.09
2018-12-31T00:03:44.646Z,6.08
2018-12-31T00:04:45.130Z,6.08
2018-12-31T00:05:46.515Z,6.08
2018-12-31T00:06:45.944Z,6.08
2018-12-31T00:07:46.597Z,6.08
2018-12-31T00:08:47.480Z,6.08
2018-12-31T00:09:46.892Z,6.08
2018-12-31T00:10:48.709Z,6.08
2018-12-31T00:11:48.032Z,6.08
2018-12-31T00:12:49.679Z,6.08
2018-12-31T00:13:50.151Z,6.08
2018-12-31T00:14:50.678Z,6.08
2018-12-31T00:15:51.292Z,6.09
2018-12-31T00:16:52.662Z,6.09
2018-12-31T00:17:52.156Z,6.09
2018-12-31T00:18:52.688Z,6.09
2018-12-31T00:19:53.103Z,6.09
2018-12-31T00:20:53.766Z,6.09
2018-12-31T00:21:54.374Z,6.09
2018-12-31T00:22:55.188Z,6.09
2018-12-31T00:23:55.721Z,6.09
2018-12-31T00:24:05.801Z,6.16
2018-12-31T00:25:06.491Z,6.16
2018-12-31T00:26:05.963Z,6.16
2018-12-31T00:27:07.494Z,6.16
2018-12-31T00:28:08.059Z,6.16
2018-12-31T00:29:08.598Z,6.16
2018-12-31T00:30:09.209Z,6.16
2018-12-31T00:31:09.262Z,6.16
2018-12-31T00:32:09.603Z,6.16
2018-12-31T00:33:10.299Z,6.16
2018-12-31T00:34:10.941Z,6.16
2018-12-31T00:35:11.463Z,6.16
2018-12-31T00:36:12.162Z,6.17
2018-12-31T00:37:13.037Z,6.17
2018-12-31T00:38:13.732Z,6.17
2018-12-31T00:39:14.588Z,6.18
2018-12-31T00:40:15.054Z,6.18
2018-12-31T00:41:15.569Z,6.19
2018-12-31T00:42:15.601Z,6.19
2018-12-31T00:43:16.192Z,6.19
2018-12-31T00:44:16.765Z,6.19
2018-12-31T00:45:16.207Z,6.19
2018-12-31T00:46:17.643Z,6.20
2018-12-31T00:47:18.093Z,6.20
2018-12-31T00:48:18.870Z,6.20
2018-12-31T00:49:19.435Z,6.20
2018-12-31T00:50:19.800Z,6.20
2018-12-31T00:51:20.702Z,6.20
2018-12-31T00:52:21.076Z,6.21
2018-12-31T00:53:21.583Z,6.21
2018-12-31T00:54:22.227Z,6.21
2018-12-31T00:55:22.755Z,6.21
2018-12-31T00:56:23.340Z,6.21
2018-12-31T00:57:23.980Z,6.21
2018-12-31T00:58:24.829Z,6.21
2018-12-31T00:59:25.401Z,6.22
2018-12-31T01:00:25.976Z,6.21
2018-12-31T01:01:26.517Z,6.21
2018-12-31T01:02:26.960Z,6.21
2018-12-31T01:03:27.486Z,6.21
2018-12-31T01:04:28.021Z,6.21
2018-12-31T01:05:28.533Z,6.21
2018-12-31T01:06:29.195Z,6.21
2018-12-31T01:07:29.664Z,6.21
2018-12-31T01:08:30.191Z,6.21
2018-12-31T01:09:30.932Z,6.21
2018-12-31T01:10:31.403Z,6.21
2018-12-31T01:10:41.370Z,6.18
2018-12-31T01:11:42.975Z,6.17
2018-12-31T01:12:42.368Z,6.18
2018-12-31T01:13:43.949Z,6.18
2018-12-31T01:14:44.468Z,6.18
2018-12-31T01:15:44.976Z,6.18
2018-12-31T01:16:45.303Z,6.18
2018-12-31T01:17:46.019Z,6.17
2018-12-31T01:18:46.662Z,6.17
2018-12-31T01:19:47.296Z,6.17
2018-12-31T01:20:47.756Z,6.18
2018-12-31T01:21:48.137Z,6.18
2018-12-31T01:22:48.731Z,6.18
2018-12-31T01:23:49.259Z,6.19
2018-12-31T01:24:50.215Z,6.19
2018-12-31T01:25:50.762Z,6.19
2018-12-31T01:26:51.256Z,6.20
2018-12-31T01:27:51.680Z,6.20
2018-12-31T01:28:52.189Z,6.20
2018-12-31T01:29:52.802Z,6.21
2018-12-31T01:30:52.866Z,6.21
2018-12-31T01:31:53.319Z,6.22
2018-12-31T01:32:53.768Z,6.22
2018-12-31T01:33:54.146Z,6.23
2018-12-31T01:34:54.585Z,6.23
2018-12-31T01:35:54.900Z,6.23
2018-12-31T01:36:55.243Z,6.23
2018-12-31T01:37:55.677Z,6.23
2018-12-31T01:38:56.178Z,6.23
2018-12-31T01:39:56.784Z,6.23
2018-12-31T01:40:57.160Z,6.23
2018-12-31T01:41:57.604Z,6.23
2018-12-31T01:42:58.111Z,6.24
2018-12-31T01:43:58.546Z,6.24
2018-12-31T01:44:59.056Z,6.24
2018-12-31T01:45:59.544Z,6.24
2018-12-31T01:47:00.302Z,6.23
2018-12-31T01:47:59.678Z,6.23
2018-12-31T01:49:01.339Z,6.23
2018-12-31T01:50:02.871Z,6.23
2018-12-31T01:51:02.252Z,6.23
2018-12-31T01:52:02.629Z,6.22
2018-12-31T01:53:03.250Z,6.22
2018-12-31T01:54:03.707Z,6.22
2018-12-31T01:55:04.118Z,6.22
2018-12-31T01:56:04.457Z,6.22
2018-12-31T01:57:05.456Z,6.22
2018-12-31T01:57:13.761Z,6.26
2018-12-31T01:58:15.100Z,6.26
2018-12-31T01:59:15.499Z,6.26
2018-12-31T02:00:15.988Z,6.26
2018-12-31T02:01:16.794Z,6.27
2018-12-31T02:02:16.174Z,6.27
2018-12-31T02:03:17.648Z,6.28
2018-12-31T02:04:19.031Z,6.28
2018-12-31T02:05:18.725Z,6.28
2018-12-31T02:06:19.148Z,6.28
2018-12-31T02:07:19.594Z,6.28
2018-12-31T02:08:20.047Z,6.28
2018-12-31T02:09:20.394Z,6.28
2018-12-31T02:10:20.773Z,6.29
2018-12-31T02:11:21.379Z,6.29
2018-12-31T02:12:21.869Z,6.29
2018-12-31T02:13:22.298Z,6.29
2018-12-31T02:14:22.423Z,6.29
2018-12-31T02:15:23.004Z,6.29
2018-12-31T02:16:23.541Z,6.29
2018-12-31T02:17:24.261Z,6.29
2018-12-31T02:18:24.724Z,6.30
2018-12-31T02:19:25.065Z,6.30
2018-12-31T02:20:25.514Z,6.30
2018-12-31T02:21:25.938Z,6.30
2018-12-31T02:22:26.263Z,6.30
2018-12-31T02:23:26.929Z,6.30
2018-12-31T02:24:27.333Z,6.30
2018-12-31T02:25:27.799Z,6.30
2018-12-31T02:26:28.422Z,6.30
2018-12-31T02:27:29.049Z,6.30
2018-12-31T02:28:29.631Z,6.30
2018-12-31T02:29:30.139Z,6.30
2018-12-31T02:30:30.569Z,6.30
2018-12-31T02:31:31.267Z,6.31
2018-12-31T02:32:31.623Z,6.30
2018-12-31T02:33:32.160Z,6.31
2018-12-31T02:34:32.588Z,6.31
2018-12-31T02:35:32.992Z,6.31
2018-12-31T02:36:33.448Z,6.31
2018-12-31T02:37:33.818Z,6.31
2018-12-31T02:38:34.213Z,6.32
2018-12-31T02:39:34.664Z,6.32
2018-12-31T02:40:34.668Z,6.32
2018-12-31T02:41:35.164Z,6.33
2018-12-31T02:42:35.615Z,6.33
2018-12-31T02:42:43.994Z,6.44
2018-12-31T02:43:45.593Z,6.43
2018-12-31T02:44:46.083Z,6.44
2018-12-31T02:45:46.646Z,6.43
2018-12-31T02:46:47.253Z,6.43
2018-12-31T02:47:47.654Z,6.44
2018-12-31T02:48:48.099Z,6.44
2018-12-31T02:49:48.450Z,6.44
2018-12-31T02:50:48.886Z,6.44
2018-12-31T02:51:49.296Z,6.45
2018-12-31T02:52:49.861Z,6.45
2018-12-31T02:53:50.237Z,6.45
2018-12-31T02:54:50.763Z,6.46
2018-12-31T02:55:51.232Z,6.46
2018-12-31T02:56:52.692Z,6.46
2018-12-31T02:57:52.185Z,6.47
2018-12-31T02:58:52.903Z,6.47
2018-12-31T02:59:53.348Z,6.47
2018-12-31T03:00:53.912Z,6.47
2018-12-31T03:01:54.416Z,6.48
2018-12-31T03:02:54.915Z,6.48
2018-12-31T03:03:55.428Z,6.48
2018-12-31T03:04:55.935Z,6.48
2018-12-31T03:05:56.469Z,6.49
2018-12-31T03:06:55.918Z,6.49
2018-12-31T03:07:57.482Z,6.48
2018-12-31T03:08:58.045Z,6.48
2018-12-31T03:09:58.567Z,6.48
2018-12-31T03:10:59.221Z,6.48
2018-12-31T03:11:59.756Z,6.47
2018-12-31T03:13:00.172Z,6.47
2018-12-31T03:14:00.554Z,6.47
2018-12-31T03:15:00.587Z,6.46
2018-12-31T03:16:01.549Z,6.47
2018-12-31T03:17:02.130Z,6.47
2018-12-31T03:18:02.737Z,6.47
2018-12-31T03:19:03.226Z,6.47
2018-12-31T03:20:03.938Z,6.47
2018-12-31T03:21:04.387Z,6.48
2018-12-31T03:22:05.187Z,6.48
2018-12-31T03:23:05.603Z,6.48
2018-12-31T03:24:06.111Z,6.48
2018-12-31T03:25:06.561Z,6.48
2018-12-31T03:26:07.183Z,6.47
2018-12-31T03:31:41.662Z,6.47
2018-12-31T03:32:42.116Z,6.47
2018-12-31T03:33:42.437Z,6.48
2018-12-31T03:33:50.812Z,6.48
2018-12-31T03:34:51.516Z,6.48
2018-12-31T03:35:51.952Z,6.48
2018-12-31T03:36:52.524Z,6.48
2018-12-31T03:37:52.989Z,6.48
2018-12-31T03:38:53.449Z,6.49
2018-12-31T03:39:53.941Z,6.50
2018-12-31T03:40:54.304Z,6.50
2018-12-31T03:41:55.060Z,6.51
2018-12-31T03:42:55.443Z,6.52
2018-12-31T03:43:55.794Z,6.52
2018-12-31T03:44:56.277Z,6.53
2018-12-31T03:45:56.666Z,6.54
2018-12-31T03:46:57.073Z,6.54
2018-12-31T03:47:57.601Z,6.54
2018-12-31T03:48:58.021Z,6.55
2018-12-31T03:49:58.394Z,6.55
2018-12-31T03:50:58.734Z,6.55
2018-12-31T03:51:59.352Z,6.55
2018-12-31T03:52:59.893Z,6.55
2018-12-31T03:54:00.576Z,6.56
2018-12-31T03:55:01.006Z,6.56
2018-12-31T03:56:01.432Z,6.56
2018-12-31T03:57:02.039Z,6.57
2018-12-31T03:58:02.468Z,6.57
2018-12-31T03:59:02.937Z,6.57
2018-12-31T04:00:03.257Z,6.57
2018-12-31T04:01:03.571Z,6.57
2018-12-31T04:02:03.982Z,6.57
2018-12-31T04:03:04.583Z,6.56
2018-12-31T04:04:05.068Z,6.56
2018-12-31T04:05:05.406Z,6.55
2018-12-31T04:06:05.902Z,6.54
2018-12-31T04:07:06.709Z,6.53
2018-12-31T04:08:06.625Z,6.53
2018-12-31T04:09:08.093Z,6.53
2018-12-31T04:10:08.434Z,6.52
2018-12-31T04:11:08.659Z,6.52
2018-12-31T04:12:09.313Z,6.51
2018-12-31T04:13:09.823Z,6.51
2018-12-31T04:14:10.493Z,6.51
2018-12-31T04:15:10.871Z,6.51
2018-12-31T04:16:11.230Z,6.50
2018-12-31T04:17:11.518Z,6.51
2018-12-31T04:17:20.001Z,6.48
2018-12-31T04:18:20.877Z,6.47
2018-12-31T04:19:21.226Z,6.47
2018-12-31T04:20:21.938Z,6.47
2018-12-31T04:21:22.478Z,6.47
2018-12-31T04:22:22.939Z,6.47
2018-12-31T04:23:23.352Z,6.47
2018-12-31T04:24:23.728Z,6.47
2018-12-31T04:25:24.602Z,6.47
2018-12-31T04:26:24.996Z,6.47
2018-12-31T04:27:25.288Z,6.47
2018-12-31T04:28:25.825Z,6.47
2018-12-31T04:29:26.470Z,6.47
2018-12-31T04:30:26.901Z,6.47
2018-12-31T04:31:27.367Z,6.46
2018-12-31T04:32:28.041Z,6.46
2018-12-31T04:33:28.540Z,6.46
2018-12-31T04:34:28.937Z,6.46
2018-12-31T04:35:29.409Z,6.46
2018-12-31T04:36:29.946Z,6.46
2018-12-31T04:37:29.314Z,6.46
2018-12-31T04:38:30.792Z,6.46
2018-12-31T04:39:31.140Z,6.45
2018-12-31T04:40:31.594Z,6.45
2018-12-31T04:41:31.920Z,6.45
2018-12-31T04:42:32.377Z,6.45
2018-12-31T04:43:32.794Z,6.45
2018-12-31T04:44:33.205Z,6.45
2018-12-31T04:45:32.504Z,6.44
2018-12-31T04:46:33.860Z,6.44
2018-12-31T04:47:34.155Z,6.44
2018-12-31T04:48:34.890Z,6.44
2018-12-31T04:49:35.486Z,6.43
2018-12-31T04:50:35.961Z,6.43
2018-12-31T04:51:36.488Z,6.42
2018-12-31T04:52:37.017Z,6.42
2018-12-31T04:53:37.410Z,6.42
2018-12-31T04:54:38.073Z,6.42
2018-12-31T04:55:44.362Z,6.41
2018-12-31T04:56:37.976Z,6.41
2018-12-31T04:57:39.365Z,6.41
2018-12-31T04:58:40.038Z,6.41
2018-12-31T04:59:40.455Z,6.41
2018-12-31T05:00:40.165Z,6.41
2018-12-31T05:01:41.221Z,6.41
2018-12-31T05:02:41.579Z,6.42
2018-12-31T05:03:41.885Z,6.43
2018-12-31T05:04:42.366Z,6.43
2018-12-31T05:05:42.939Z,6.44
2018-12-31T05:05:51.955Z,6.52
2018-12-31T05:06:52.363Z,6.52
2018-12-31T05:07:52.754Z,6.52
2018-12-31T05:08:53.464Z,6.51
2018-12-31T05:09:54.043Z,6.51
2018-12-31T05:10:54.438Z,6.51
2018-12-31T05:11:54.761Z,6.50
2018-12-31T05:12:55.059Z,6.50
2018-12-31T05:13:55.707Z,6.50
2018-12-31T05:14:56.308Z,6.50
2018-12-31T05:15:57.239Z,6.49
2018-12-31T05:16:57.685Z,6.49
2018-12-31T05:17:58.268Z,6.49
2018-12-31T05:18:58.850Z,6.49
2018-12-31T05:19:59.253Z,6.48
2018-12-31T05:20:59.656Z,6.48
2018-12-31T05:22:00.040Z,6.48
2018-12-31T05:23:00.547Z,6.47
2018-12-31T05:24:01.264Z,6.47
2018-12-31T05:25:01.681Z,6.47
2018-12-31T05:26:02.234Z,6.47
2018-12-31T05:27:02.672Z,6.46
2018-12-31T05:28:03.205Z,6.46
2018-12-31T05:29:03.755Z,6.46
2018-12-31T05:30:04.136Z,6.45
2018-12-31T05:31:04.847Z,6.45
2018-12-31T05:32:05.283Z,6.45
2018-12-31T05:33:05.703Z,6.44
2018-12-31T05:34:06.363Z,6.44
2018-12-31T05:35:06.737Z,6.44
2018-12-31T05:36:07.450Z,6.43
2018-12-31T05:37:07.882Z,6.43
2018-12-31T05:38:08.316Z,6.43
2018-12-31T05:39:08.945Z,6.42
2018-12-31T05:40:09.574Z,6.42
2018-12-31T05:41:09.854Z,6.41
2018-12-31T05:42:10.277Z,6.41
2018-12-31T05:43:10.745Z,6.41
2018-12-31T05:44:11.112Z,6.41
2018-12-31T05:45:11.650Z,6.41
2018-12-31T05:46:12.136Z,6.41
2018-12-31T05:47:12.653Z,6.41
2018-12-31T05:48:13.420Z,6.42
2018-12-31T05:49:13.920Z,6.42
2018-12-31T05:50:14.547Z,6.42
2018-12-31T05:51:14.777Z,6.43
2018-12-31T05:51:23.056Z,6.51
2018-12-31T05:52:24.406Z,6.51
2018-12-31T05:53:24.437Z,6.51
2018-12-31T05:54:24.881Z,6.50
2018-12-31T05:55:25.331Z,6.50
2018-12-31T05:56:25.760Z,6.49
2018-12-31T05:57:26.395Z,6.49
2018-12-31T05:58:26.827Z,6.49
2018-12-31T05:59:27.530Z,6.49
2018-12-31T06:00:27.952Z,6.50
2018-12-31T06:01:28.407Z,6.50
2018-12-31T06:02:28.890Z,6.51
2018-12-31T06:03:29.425Z,6.51
2018-12-31T06:04:28.761Z,6.51
2018-12-31T06:05:30.116Z,6.52
2018-12-31T06:06:30.612Z,6.53
2018-12-31T06:07:31.279Z,6.53
2018-12-31T06:08:31.810Z,6.54
2018-12-31T06:09:32.277Z,6.55
2018-12-31T06:10:32.897Z,6.55
2018-12-31T06:11:33.418Z,6.56
2018-12-31T06:12:34.194Z,6.56
2018-12-31T06:13:34.662Z,6.57
2018-12-31T06:14:35.172Z,6.57
2018-12-31T06:15:35.677Z,6.58
2018-12-31T06:16:35.776Z,6.58
2018-12-31T06:17:36.367Z,6.59
2018-12-31T06:18:36.845Z,6.59
2018-12-31T06:19:42.770Z,6.60
2018-12-31T06:20:36.813Z,6.60
2018-12-31T06:21:37.334Z,6.61
2018-12-31T06:22:38.808Z,6.62
2018-12-31T06:23:39.204Z,6.63
2018-12-31T06:24:40.035Z,6.63
2018-12-31T06:25:40.661Z,6.64
2018-12-31T06:26:41.113Z,6.65
2018-12-31T06:27:41.715Z,6.65
2018-12-31T06:28:42.115Z,6.66
2018-12-31T06:29:42.453Z,6.67
2018-12-31T06:30:42.898Z,6.67
2018-12-31T06:31:43.412Z,6.68
2018-12-31T06:32:44.127Z,6.69
2018-12-31T06:33:44.616Z,6.70
2018-12-31T06:34:45.355Z,6.70
2018-12-31T06:35:46.189Z,6.70
2018-12-31T06:36:46.586Z,6.70
2018-12-31T06:36:56.638Z,6.68
2018-12-31T06:37:58.056Z,6.68
2018-12-31T06:38:58.476Z,6.68
2018-12-31T06:39:59.137Z,6.68
2018-12-31T06:40:59.616Z,6.67
2018-12-31T06:42:00.054Z,6.67
2018-12-31T06:43:00.569Z,6.68
2018-12-31T06:44:01.150Z,6.68
2018-12-31T06:45:01.636Z,6.68
2018-12-31T06:46:02.011Z,6.69
2018-12-31T06:47:02.542Z,6.69
2018-12-31T06:48:03.161Z,6.70
2018-12-31T06:49:03.559Z,6.70
2018-12-31T06:50:04.182Z,6.70
2018-12-31T06:51:04.576Z,6.70
2018-12-31T06:52:05.459Z,6.70
2018-12-31T06:53:06.101Z,6.70
2018-12-31T06:54:06.824Z,6.70
2018-12-31T06:55:07.211Z,6.70
2018-12-31T06:56:07.660Z,6.70
2018-12-31T06:57:08.453Z,6.70
2018-12-31T06:58:09.158Z,6.69
2018-12-31T06:59:08.433Z,6.69
2018-12-31T07:00:10.059Z,6.69
2018-12-31T07:01:10.418Z,6.69
2018-12-31T07:02:10.855Z,6.69
2018-12-31T07:03:11.067Z,6.68
2018-12-31T07:04:11.576Z,6.69
2018-12-31T07:05:11.993Z,6.69
2018-12-31T07:06:12.602Z,6.69
2018-12-31T07:07:13.369Z,6.69
2018-12-31T07:08:13.932Z,6.69
2018-12-31T07:09:14.295Z,6.69
2018-12-31T07:10:15.134Z,6.70
2018-12-31T07:11:15.693Z,6.70
2018-12-31T07:12:16.384Z,6.71
2018-12-31T07:13:16.832Z,6.71
2018-12-31T07:14:17.477Z,6.70
2018-12-31T07:15:18.098Z,6.70
2018-12-31T07:16:18.659Z,6.70
2018-12-31T07:17:19.298Z,6.70
2018-12-31T07:18:19.701Z,6.70
2018-12-31T07:19:20.196Z,6.70
2018-12-31T07:20:20.697Z,6.69
2018-12-31T07:21:21.097Z,6.69
2018-12-31T07:22:21.513Z,6.69
2018-12-31T07:22:29.921Z,6.67
2018-12-31T07:23:30.139Z,6.67
2018-12-31T07:24:31.616Z,6.67
2018-12-31T07:25:32.355Z,6.67
2018-12-31T07:26:32.731Z,6.67
2018-12-31T07:27:33.134Z,6.67
2018-12-31T07:28:33.671Z,6.68
2018-12-31T07:29:34.032Z,6.68
2018-12-31T07:30:34.624Z,6.68
2018-12-31T07:31:35.121Z,6.68
2018-12-31T07:32:35.504Z,6.68
2018-12-31T07:33:36.145Z,6.68
2018-12-31T07:34:36.520Z,6.68
2018-12-31T07:35:36.642Z,6.68
2018-12-31T07:36:37.019Z,6.68
2018-12-31T07:37:37.385Z,6.68
2018-12-31T07:38:37.838Z,6.68
2018-12-31T07:39:38.263Z,6.68
2018-12-31T07:40:38.752Z,6.68
2018-12-31T07:41:39.123Z,6.68
2018-12-31T07:42:39.526Z,6.68
2018-12-31T07:43:40.326Z,6.68
2018-12-31T07:44:40.923Z,6.69
2018-12-31T07:45:41.467Z,6.69
2018-12-31T07:46:42.034Z,6.70
2018-12-31T07:47:42.468Z,6.70
2018-12-31T07:48:42.921Z,6.71
2018-12-31T07:49:43.405Z,6.71
2018-12-31T07:50:43.793Z,6.71
2018-12-31T07:51:44.392Z,6.71
2018-12-31T07:52:44.900Z,6.71
2018-12-31T07:53:45.319Z,6.71
2018-12-31T07:54:45.795Z,6.71
2018-12-31T07:55:47.507Z,6.72
2018-12-31T07:56:47.249Z,6.72
2018-12-31T07:57:47.613Z,6.72
2018-12-31T07:58:48.143Z,6.72
2018-12-31T07:59:48.611Z,6.72
2018-12-31T08:00:49.012Z,6.72
2018-12-31T08:01:49.092Z,6.72
2018-12-31T08:02:49.600Z,6.72
2018-12-31T08:03:49.994Z,6.72
2018-12-31T08:04:50.482Z,6.72
2018-12-31T08:05:50.962Z,6.72
2018-12-31T08:06:51.538Z,6.72
2018-12-31T08:06:59.958Z,6.78
2018-12-31T08:08:01.410Z,6.78
2018-12-31T08:09:02.373Z,6.78
2018-12-31T08:10:02.769Z,6.77
2018-12-31T08:11:03.266Z,6.77
2018-12-31T08:12:03.839Z,6.78
2018-12-31T08:13:04.461Z,6.78
2018-12-31T08:14:04.979Z,6.78
2018-12-31T08:15:05.509Z,6.78
2018-12-31T08:16:04.786Z,6.78
2018-12-31T08:17:06.173Z,6.78
2018-12-31T08:18:06.957Z,6.79
2018-12-31T08:19:07.848Z,6.79
2018-12-31T08:20:08.322Z,6.80
2018-12-31T08:21:08.777Z,6.80
2018-12-31T08:22:09.623Z,6.80
2018-12-31T08:23:10.196Z,6.80
2018-12-31T08:24:10.754Z,6.81
2018-12-31T08:25:10.474Z,6.81
2018-12-31T08:26:11.864Z,6.81
2018-12-31T08:27:12.522Z,6.81
2018-12-31T08:28:13.245Z,6.82
2018-12-31T08:29:13.854Z,6.83
2018-12-31T08:30:14.282Z,6.83
2018-12-31T08:31:14.721Z,6.83
2018-12-31T08:32:14.735Z,6.84
2018-12-31T08:33:15.198Z,6.84
2018-12-31T08:34:15.759Z,6.84
2018-12-31T08:35:15.827Z,6.84
2018-12-31T08:36:15.931Z,6.85
2018-12-31T08:37:16.331Z,6.85
2018-12-31T08:38:16.738Z,6.85
2018-12-31T08:39:17.174Z,6.85
2018-12-31T08:40:17.348Z,6.86
2018-12-31T08:41:18.095Z,6.86
2018-12-31T08:42:18.669Z,6.87
2018-12-31T08:43:19.353Z,6.87
2018-12-31T08:44:20.005Z,6.88
2018-12-31T08:45:20.499Z,6.89
2018-12-31T08:46:21.183Z,6.90
2018-12-31T08:47:21.722Z,6.91
2018-12-31T08:48:22.368Z,6.93
2018-12-31T08:49:22.794Z,6.94
2018-12-31T08:50:23.461Z,6.95
2018-12-31T08:51:23.928Z,6.96
2018-12-31T08:52:24.514Z,6.97
2018-12-31T08:53:23.984Z,6.99
2018-12-31T08:54:25.409Z,7.00
2018-12-31T08:54:39.476Z,7.20
2018-12-31T08:55:39.768Z,7.19
2018-12-31T08:56:42.322Z,7.19
2018-12-31T08:57:41.775Z,7.19
2018-12-31T08:58:42.358Z,7.19
2018-12-31T08:59:42.994Z,7.19
2018-12-31T09:00:43.480Z,7.19
2018-12-31T09:01:43.887Z,7.19
2018-12-31T09:02:44.494Z,7.19
2018-12-31T09:03:45.090Z,7.18
2018-12-31T09:04:45.439Z,7.18
2018-12-31T09:05:45.899Z,7.18
2018-12-31T09:06:46.380Z,7.18
2018-12-31T09:07:47.213Z,7.18
2018-12-31T09:08:47.673Z,7.17
2018-12-31T09:09:48.131Z,7.17
2018-12-31T09:10:48.596Z,7.16
2018-12-31T09:11:49.197Z,7.16
2018-12-31T09:12:48.710Z,7.16
2018-12-31T09:13:50.107Z,7.15
2018-12-31T09:14:50.523Z,7.14
2018-12-31T09:15:51.176Z,7.14
2018-12-31T09:16:51.599Z,7.13
2018-12-31T09:17:52.221Z,7.13
2018-12-31T09:18:53.158Z,7.12
2018-12-31T09:19:53.719Z,7.12
2018-12-31T09:20:54.005Z,7.12
2018-12-31T09:21:54.536Z,7.12
2018-12-31T09:22:55.087Z,7.12
2018-12-31T09:23:55.456Z,7.12
2018-12-31T09:24:55.991Z,7.12
2018-12-31T09:25:56.535Z,7.12
2018-12-31T09:26:55.902Z,7.11
2018-12-31T09:27:57.506Z,7.11
2018-12-31T09:28:58.045Z,7.11
2018-12-31T09:29:57.450Z,7.11
2018-12-31T09:30:59.207Z,7.10
2018-12-31T09:31:59.731Z,7.10
2018-12-31T09:33:00.266Z,7.10
2018-12-31T09:34:00.744Z,7.09
2018-12-31T09:35:00.792Z,7.09
2018-12-31T09:36:01.518Z,7.09
2018-12-31T09:37:02.000Z,7.09
2018-12-31T09:38:02.447Z,7.08
2018-12-31T09:39:03.096Z,7.08
2018-12-31T09:40:03.438Z,7.09
2018-12-31T09:40:11.797Z,7.13
2018-12-31T09:41:12.487Z,7.12
2018-12-31T09:42:12.930Z,7.12
2018-12-31T09:43:13.252Z,7.12
2018-12-31T09:44:13.707Z,7.12
2018-12-31T09:45:14.257Z,7.12
2018-12-31T09:46:14.708Z,7.12
2018-12-31T09:47:15.133Z,7.12
2018-12-31T09:48:15.733Z,7.13
2018-12-31T09:49:16.166Z,7.13
2018-12-31T09:50:16.524Z,7.14
2018-12-31T09:51:16.952Z,7.15
2018-12-31T09:52:17.540Z,7.15
2018-12-31T09:53:18.088Z,7.16
2018-12-31T09:54:18.605Z,7.17
2018-12-31T09:55:18.968Z,7.18
2018-12-31T09:56:19.568Z,7.19
2018-12-31T09:57:19.979Z,7.20
2018-12-31T09:58:20.530Z,7.21
2018-12-31T09:59:21.020Z,7.22
2018-12-31T10:00:21.569Z,7.23
2018-12-31T10:01:22.200Z,7.25
2018-12-31T10:02:22.799Z,7.26
2018-12-31T10:03:23.322Z,7.28
2018-12-31T10:04:23.742Z,7.30
2018-12-31T10:05:24.131Z,7.32
2018-12-31T10:06:24.560Z,7.34
2018-12-31T10:07:24.971Z,7.36
2018-12-31T10:08:25.556Z,7.37
2018-12-31T10:09:25.927Z,7.39
2018-12-31T10:10:26.449Z,7.40
2018-12-31T10:11:26.890Z,7.42
2018-12-31T10:12:27.543Z,7.43
2018-12-31T10:13:27.917Z,7.45
2018-12-31T10:14:28.393Z,7.46
2018-12-31T10:15:29.114Z,7.48
2018-12-31T10:16:30.525Z,7.49
2018-12-31T10:17:29.660Z,7.51
2018-12-31T10:18:31.036Z,7.52
2018-12-31T10:19:31.629Z,7.53
2018-12-31T10:20:31.827Z,7.55
2018-12-31T10:21:31.833Z,7.56
2018-12-31T10:22:32.338Z,7.57
2018-12-31T10:23:33.142Z,7.58
2018-12-31T10:24:32.614Z,7.60
2018-12-31T10:25:34.120Z,7.62
2018-12-31T10:26:34.886Z,7.64
2018-12-31T10:26:43.358Z,7.92
2018-12-31T10:27:44.771Z,7.92
2018-12-31T10:28:46.454Z,7.92
2018-12-31T10:29:45.814Z,7.92
2018-12-31T10:30:46.363Z,7.92
2018-12-31T10:31:46.821Z,7.92
2018-12-31T10:32:47.376Z,7.92
2018-12-31T10:33:48.084Z,7.92
2018-12-31T10:34:48.513Z,7.92
2018-12-31T10:35:49.053Z,7.92
2018-12-31T10:36:49.159Z,7.91
2018-12-31T10:37:49.432Z,7.91
2018-12-31T10:38:51.266Z,7.91
2018-12-31T10:39:49.666Z,7.90
2018-12-31T10:40:51.039Z,7.89
2018-12-31T10:41:51.305Z,7.89
2018-12-31T10:42:51.408Z,7.88
2018-12-31T10:43:52.094Z,7.88
2018-12-31T10:44:52.631Z,7.88
2018-12-31T10:45:53.102Z,7.87
2018-12-31T10:46:53.618Z,7.87
2018-12-31T10:47:54.257Z,7.87
2018-12-31T10:48:54.850Z,7.87
2018-12-31T10:49:55.648Z,7.86
2018-12-31T10:50:55.244Z,7.87
2018-12-31T10:51:55.930Z,7.87
2018-12-31T10:52:57.394Z,7.87
2018-12-31T10:53:57.952Z,7.87
2018-12-31T10:54:58.666Z,7.87
2018-12-31T10:55:59.125Z,7.88
2018-12-31T10:56:59.535Z,7.88
2018-12-31T10:58:00.042Z,7.89
2018-12-31T10:59:00.466Z,7.90
2018-12-31T11:00:00.948Z,7.91
2018-12-31T11:01:01.558Z,7.92
2018-12-31T11:02:02.457Z,7.94
2018-12-31T11:03:03.416Z,7.95
2018-12-31T11:04:03.894Z,7.97
2018-12-31T11:05:04.617Z,7.99
2018-12-31T11:06:05.233Z,8.00
2018-12-31T11:07:05.611Z,8.02
2018-12-31T11:08:06.225Z,8.03
2018-12-31T11:09:07.135Z,8.04
2018-12-31T11:10:07.594Z,8.05
2018-12-31T11:11:08.376Z,8.06
2018-12-31T11:12:09.038Z,8.08
2018-12-31T11:13:09.463Z,8.09
2018-12-31T11:13:18.508Z,8.28
2018-12-31T11:14:19.126Z,8.28
2018-12-31T11:15:19.546Z,8.28
2018-12-31T11:16:20.214Z,8.28
2018-12-31T11:17:20.678Z,8.28
2018-12-31T11:18:21.015Z,8.28
2018-12-31T11:19:21.576Z,8.29
2018-12-31T11:20:22.122Z,8.29
2018-12-31T11:21:22.842Z,8.29
2018-12-31T11:22:22.246Z,8.29
2018-12-31T11:23:23.671Z,8.29
2018-12-31T11:24:24.544Z,8.29
2018-12-31T11:25:25.020Z,8.29
2018-12-31T11:26:25.752Z,8.29
2018-12-31T11:27:26.257Z,8.29
2018-12-31T11:28:26.608Z,8.30
2018-12-31T11:29:27.082Z,8.30
2018-12-31T11:30:27.543Z,8.30
2018-12-31T11:31:30.404Z,8.30
2018-12-31T11:32:27.332Z,8.30
2018-12-31T11:33:28.936Z,8.30
2018-12-31T11:34:29.515Z,8.30
2018-12-31T11:35:29.922Z,8.30
2018-12-31T11:36:30.300Z,8.30
2018-12-31T11:37:34.526Z,8.30
2018-12-31T11:38:30.349Z,8.30
2018-12-31T11:39:31.849Z,8.30
2018-12-31T11:40:31.250Z,8.30
2018-12-31T11:41:32.736Z,8.31
2018-12-31T11:42:33.153Z,8.31
2018-12-31T11:43:33.609Z,8.31
2018-12-31T11:44:34.180Z,8.31
2018-12-31T11:45:34.841Z,8.31
2018-12-31T11:46:35.279Z,8.31
2018-12-31T11:47:35.694Z,8.31
2018-12-31T11:48:35.154Z,8.31
2018-12-31T11:49:36.770Z,8.31
2018-12-31T11:50:37.204Z,8.31
2018-12-31T11:51:37.802Z,8.31
2018-12-31T11:52:37.835Z,8.32
2018-12-31T11:53:38.026Z,8.32
2018-12-31T11:54:39.375Z,8.32
2018-12-31T11:55:37.921Z,8.32
2018-12-31T11:56:39.322Z,8.33
2018-12-31T11:57:39.691Z,8.33
2018-12-31T11:58:40.227Z,8.34
2018-12-31T11:59:40.863Z,8.34
2018-12-31T12:00:41.549Z,8.34
2018-12-31T12:01:42.433Z,8.35
2018-12-31T12:02:42.860Z,8.36
2018-12-31T12:03:05.927Z,8.41
2018-12-31T12:04:07.293Z,8.41
2018-12-31T12:05:08.248Z,8.41
2018-12-31T12:06:08.086Z,8.41
2018-12-31T12:07:09.377Z,8.40
2018-12-31T12:08:09.957Z,8.40
2018-12-31T12:09:10.499Z,8.39
2018-12-31T12:10:10.892Z,8.39
2018-12-31T12:11:11.289Z,8.39
2018-12-31T12:12:11.980Z,8.39
2018-12-31T12:13:12.476Z,8.39
2018-12-31T12:14:13.040Z,8.40
2018-12-31T12:15:13.721Z,8.40
2018-12-31T12:16:14.363Z,8.40
2018-12-31T12:17:14.890Z,8.40
2018-12-31T12:18:15.373Z,8.40
2018-12-31T12:19:16.251Z,8.40
2018-12-31T12:20:16.968Z,8.40
2018-12-31T12:21:17.490Z,8.40
2018-12-31T12:22:17.620Z,8.40
2018-12-31T12:23:17.022Z,8.39
2018-12-31T12:24:18.585Z,8.39
2018-12-31T12:25:18.596Z,8.39
2018-12-31T12:26:19.355Z,8.39
2018-12-31T12:27:20.191Z,8.40
2018-12-31T12:28:19.140Z,8.40
2018-12-31T12:29:20.660Z,8.40
2018-12-31T12:30:21.576Z,8.40
2018-12-31T12:31:22.257Z,8.40
2018-12-31T12:32:21.839Z,8.40
2018-12-31T12:33:23.370Z,8.40
2018-12-31T12:34:23.800Z,8.40
2018-12-31T12:35:24.140Z,8.39
2018-12-31T12:36:24.849Z,8.38
2018-12-31T12:37:25.193Z,8.38
2018-12-31T12:38:25.708Z,8.38
2018-12-31T12:39:26.241Z,8.37
2018-12-31T12:40:26.815Z,8.37
2018-12-31T12:41:27.366Z,8.36
2018-12-31T12:42:27.162Z,8.36
2018-12-31T12:43:28.270Z,8.37
2018-12-31T12:43:40.369Z,8.35
2018-12-31T12:44:40.421Z,8.35
2018-12-31T12:45:41.894Z,8.35
2018-12-31T12:46:42.221Z,8.35
2018-12-31T12:47:42.634Z,8.36
2018-12-31T12:48:43.559Z,8.35
2018-12-31T12:49:44.017Z,8.36
2018-12-31T12:50:45.476Z,8.36
2018-12-31T12:51:43.966Z,8.36
2018-12-31T12:52:45.677Z,8.35
2018-12-31T12:53:45.290Z,8.35
2018-12-31T12:54:46.915Z,8.35
2018-12-31T12:55:47.411Z,8.35
2018-12-31T12:56:47.924Z,8.35
2018-12-31T12:57:48.525Z,8.34
2018-12-31T12:58:49.031Z,8.34
2018-12-31T12:59:49.394Z,8.34
2018-12-31T13:00:49.086Z,8.34
2018-12-31T13:01:50.575Z,8.34
2018-12-31T13:02:51.403Z,8.35
2018-12-31T13:03:50.786Z,8.35
2018-12-31T13:04:52.214Z,8.35
2018-12-31T13:05:52.867Z,8.36
2018-12-31T13:06:52.329Z,8.36
2018-12-31T13:07:52.768Z,8.37
2018-12-31T13:08:54.342Z,8.37
2018-12-31T13:09:54.810Z,8.38
2018-12-31T13:10:54.843Z,8.38
2018-12-31T13:11:55.397Z,8.38
2018-12-31T13:12:55.136Z,8.38
2018-12-31T13:13:56.762Z,8.39
2018-12-31T13:14:57.333Z,8.39
2018-12-31T13:15:57.846Z,8.39